Campanya meteocatpedra

Dades EMA Port de Barcelona - Bocana Sud

?
?
Resum diari 14:00 TU
Dades diàries de l'estació meteorològica
Ratxa màxima del vent (10 m) 23.4 km/h - 207º 9:50 TU

El tram horari està expressat en Temps Universal (TU). Cal sumar una hora en horari d'hivern i dues en horari d'estiu per passar a l'hora oficial.

Port de Barcelona - Bocana Sud

Metadades estació meteorol´gica
Municipi El Prat de Llobregat
Comarca Baix Llobregat
Altitud 3 m
Data alta 08.04.2015
Estat actual Operativa
Dades de període
Període
TU
VVM (10 m)
km/h
DVM (10 m)
graus
VVX (10 m)
km/h
00:00 - 00:30 8.3 278 11.5
00:30 - 01:00 7.2 277 9.0
01:00 - 01:30 7.6 264 9.7
01:30 - 02:00 9.4 260 12.2
02:00 - 02:30 9.7 269 12.2
02:30 - 03:00 10.4 275 15.8
03:00 - 03:30 10.8 281 14.4
03:30 - 04:00 9.4 257 13.7
04:00 - 04:30 10.8 266 13.7
04:30 - 05:00 14.0 279 18.0
05:00 - 05:30 12.2 277 16.9
05:30 - 06:00 9.7 277 11.5
06:00 - 06:30 8.3 277 10.4
06:30 - 07:00 7.9 277 10.4
07:00 - 07:30 9.0 259 13.0
07:30 - 08:00 10.8 223 16.6
08:00 - 08:30 15.5 219 20.5
08:30 - 09:00 18.0 219 20.9
09:00 - 09:30 16.9 221 20.9
09:30 - 10:00 18.4 215 23.4
10:00 - 10:30 19.4 215 22.7
10:30 - 11:00 18.7 216 23.4
11:00 - 11:30 18.7 212 23.0
11:30 - 12:00 17.6 201 20.5
12:00 - 12:30 18.0 201 21.2
12:30 - 13:00 18.0 195 20.9
13:00 - 13:30 17.6 192 20.5
13:30 - 14:00 18.0 194 20.9
14:00 - 14:30 19.1 196 22.0
14:30 - 15:00 (s/d) (s/d) (s/d)

Les dades en taronja només han passat un control de qualitat automàtic. Resta pendent la seva validació definitiva.